Terminal Aerodrome Forecast
Issued by NWS

Home | Current Version | Previous Version | Text Only | Print | Product List | Glossary On
Versions: 1 2 3 4 5 6 7 8 9 10 11 12 13 14 15 16 17 18 19
000
FTUS43 KDTX 182330
TAFYIP
TAF
KYIP 182330Z 1900/1924 14005KT P6SM SCT250
     FM190400 14005KT P6SM BKN250 WS020/23040KT
     FM190900 16004KT P6SM SCT025 BKN060 OVC100 WS020/23040KT
     FM191200 16004KT 4SM -SHRA BR SCT007 OVC015
     FM191400 17005KT 2SM -SHRA BR OVC006
     FM191600 17005KT 3/4SM -SHRA BR OVC004=

USA.gov is the U.S. government's official web portal to all federal, state and local government web resources and services.